createdAt,value
2023-05-03T00:00:22.749Z,85
2023-05-03T00:01:29.658Z,85
2023-05-03T00:02:36.654Z,85
2023-05-03T00:03:43.365Z,85
2023-05-03T00:04:50.201Z,85
2023-05-03T00:05:57.068Z,85
2023-05-03T00:07:12.058Z,85
2023-05-03T00:08:18.876Z,85
2023-05-03T00:09:25.678Z,85
2023-05-03T00:10:32.461Z,85
2023-05-03T00:11:39.281Z,85
2023-05-03T00:12:46.086Z,85
2023-05-03T00:13:52.911Z,85
2023-05-03T00:14:59.691Z,85
2023-05-03T00:16:06.554Z,85
2023-05-03T00:17:13.415Z,85
2023-05-03T00:18:20.122Z,85
2023-05-03T00:19:31.307Z,85
2023-05-03T00:20:33.789Z,85
2023-05-03T00:21:40.513Z,85
2023-05-03T00:22:47.352Z,85
2023-05-03T00:23:54.169Z,85
2023-05-03T00:25:01.012Z,85
2023-05-03T00:26:07.956Z,85
2023-05-03T00:27:14.733Z,85
2023-05-03T00:28:21.546Z,85
2023-05-03T00:29:28.367Z,85
2023-05-03T00:30:35.137Z,85
2023-05-03T00:31:42.059Z,85
2023-05-03T00:32:48.770Z,85
2023-05-03T00:33:55.636Z,85
2023-05-03T00:35:02.444Z,85
2023-05-03T00:36:09.575Z,85
2023-05-03T00:37:16.460Z,85
2023-05-03T00:38:23.321Z,85
2023-05-03T00:39:30.129Z,85
2023-05-03T00:40:36.924Z,85
2023-05-03T00:41:43.741Z,85
2023-05-03T00:42:50.785Z,85
2023-05-03T00:43:57.608Z,85
2023-05-03T00:45:04.496Z,85
2023-05-03T00:47:18.172Z,85
2023-05-03T00:48:24.914Z,85
2023-05-03T00:49:31.716Z,85
2023-05-03T00:50:38.546Z,85
2023-05-03T00:51:45.265Z,85
2023-05-03T00:52:52.058Z,85
2023-05-03T00:53:58.813Z,85
2023-05-03T00:55:05.631Z,85
2023-05-03T00:56:12.580Z,85
2023-05-03T00:57:19.425Z,85
2023-05-03T00:58:26.201Z,85
2023-05-03T00:59:33.025Z,85
2023-05-03T01:00:39.721Z,85
2023-05-03T01:01:46.670Z,85
2023-05-03T01:02:56.478Z,85
2023-05-03T01:04:03.258Z,85
2023-05-03T01:05:09.868Z,85
2023-05-03T01:06:16.676Z,85
2023-05-03T01:07:33.802Z,85
2023-05-03T01:08:45.852Z,85
2023-05-03T01:10:03.205Z,85
2023-05-03T01:11:20.148Z,85
2023-05-03T01:12:26.962Z,85
2023-05-03T01:13:33.774Z,85
2023-05-03T01:14:45.750Z,85
2023-05-03T01:16:02.988Z,85
2023-05-03T01:17:09.728Z,85
2023-05-03T01:18:16.539Z,85
2023-05-03T01:19:26.129Z,85
2023-05-03T01:20:32.910Z,85
2023-05-03T01:21:39.698Z,85
2023-05-03T01:22:46.553Z,85
2023-05-03T01:24:01.631Z,85
2023-05-03T01:25:11.282Z,85
2023-05-03T01:26:18.001Z,85
2023-05-03T01:27:27.685Z,85
2023-05-03T01:28:34.613Z,85
2023-05-03T01:29:41.417Z,85
2023-05-03T01:30:48.207Z,85
2023-05-03T01:31:55.002Z,85
2023-05-03T01:33:04.850Z,85
2023-05-03T01:34:14.547Z,85
2023-05-03T01:35:26.436Z,85
2023-05-03T01:36:43.574Z,85
2023-05-03T01:37:50.382Z,85
2023-05-03T01:38:58.158Z,85
2023-05-03T01:40:07.769Z,85
2023-05-03T01:41:14.544Z,85
2023-05-03T01:42:21.335Z,85
2023-05-03T01:43:28.115Z,85
2023-05-03T01:44:34.953Z,85
2023-05-03T01:45:41.803Z,85
2023-05-03T01:46:48.516Z,85
2023-05-03T01:47:55.255Z,85
2023-05-03T01:49:02.098Z,85
2023-05-03T01:50:08.786Z,85
2023-05-03T01:51:20.752Z,85
2023-05-03T01:52:27.684Z,85
2023-05-03T01:53:34.433Z,85
2023-05-03T01:54:41.209Z,85
2023-05-03T01:55:47.990Z,85
2023-05-03T01:56:54.720Z,85
2023-05-03T01:58:01.505Z,85
2023-05-03T01:59:08.317Z,85
2023-05-03T02:00:15.054Z,85
2023-05-03T02:01:22.026Z,85
2023-05-03T02:02:28.760Z,85
2023-05-03T02:03:35.669Z,85
2023-05-03T02:04:42.412Z,85
2023-05-03T02:05:49.054Z,85
2023-05-03T02:06:55.853Z,85
2023-05-03T02:08:02.591Z,85
2023-05-03T02:09:09.377Z,85
2023-05-03T02:10:16.161Z,85
2023-05-03T02:11:22.900Z,85
2023-05-03T02:12:29.668Z,85
2023-05-03T02:13:36.476Z,85
2023-05-03T02:14:43.287Z,85
2023-05-03T02:15:50.040Z,85
2023-05-03T02:16:56.795Z,85
2023-05-03T02:18:03.693Z,85
2023-05-03T02:19:10.367Z,85
2023-05-03T02:20:17.187Z,85
2023-05-03T02:21:23.924Z,85
2023-05-03T02:22:30.682Z,85
2023-05-03T02:23:37.389Z,85
2023-05-03T02:24:44.172Z,85
2023-05-03T02:25:50.960Z,85
2023-05-03T02:26:57.727Z,85
2023-05-03T02:28:04.536Z,84
2023-05-03T02:29:11.364Z,85
2023-05-03T02:30:18.085Z,85
2023-05-03T02:31:24.910Z,85
2023-05-03T02:32:31.717Z,85
2023-05-03T02:33:38.616Z,85
2023-05-03T02:34:45.399Z,85
2023-05-03T02:35:52.192Z,85
2023-05-03T02:36:58.991Z,85
2023-05-03T02:38:05.713Z,85
2023-05-03T02:39:12.499Z,85
2023-05-03T02:40:19.247Z,85
2023-05-03T02:41:26.006Z,85
2023-05-03T02:42:32.777Z,85
2023-05-03T02:43:39.572Z,85
2023-05-03T02:44:46.579Z,85
2023-05-03T02:45:53.315Z,85
2023-05-03T02:47:00.103Z,85
2023-05-03T02:48:06.970Z,85
2023-05-03T02:49:13.878Z,85
2023-05-03T02:50:20.674Z,85
2023-05-03T02:51:27.743Z,85
2023-05-03T02:52:34.515Z,85
2023-05-03T02:53:41.279Z,85
2023-05-03T02:54:48.054Z,85
2023-05-03T02:55:54.856Z,85
2023-05-03T02:57:01.686Z,85
2023-05-03T02:58:08.543Z,86
2023-05-03T02:59:15.278Z,85
2023-05-03T03:00:22.016Z,85
2023-05-03T03:01:28.761Z,85
2023-05-03T03:02:38.390Z,85
2023-05-03T03:03:45.124Z,85
2023-05-03T03:04:51.807Z,85
2023-05-03T03:05:58.561Z,85
2023-05-03T03:07:05.343Z,85
2023-05-03T03:08:12.109Z,85
2023-05-03T03:09:18.869Z,85
2023-05-03T03:10:25.782Z,85
2023-05-03T03:11:32.571Z,85
2023-05-03T03:12:39.405Z,85
2023-05-03T03:13:46.150Z,85
2023-05-03T03:14:52.957Z,85
2023-05-03T03:15:59.740Z,85
2023-05-03T03:17:06.620Z,85
2023-05-03T03:18:13.420Z,85
2023-05-03T03:19:20.319Z,85
2023-05-03T03:20:27.095Z,85
2023-05-03T03:21:34.061Z,85
2023-05-03T03:22:40.939Z,85
2023-05-03T03:23:47.705Z,85
2023-05-03T03:24:54.546Z,85
2023-05-03T03:26:01.357Z,85
2023-05-03T03:27:08.194Z,85
2023-05-03T03:28:14.956Z,85
2023-05-03T03:29:21.757Z,85
2023-05-03T03:30:28.559Z,85
2023-05-03T03:31:35.384Z,85
2023-05-03T03:32:42.202Z,85
2023-05-03T03:33:48.972Z,85
2023-05-03T03:34:55.751Z,85
2023-05-03T03:36:02.478Z,85
2023-05-03T03:37:09.375Z,85
2023-05-03T03:38:16.162Z,86
2023-05-03T03:39:23.037Z,86
2023-05-03T03:40:29.810Z,86
2023-05-03T03:41:36.631Z,86
2023-05-03T03:42:43.402Z,86
2023-05-03T03:43:50.204Z,86
2023-05-03T03:44:57.031Z,86
2023-05-03T03:46:03.983Z,86
2023-05-03T03:47:10.822Z,86
2023-05-03T03:48:17.722Z,86
2023-05-03T03:49:24.436Z,86
2023-05-03T03:50:31.328Z,86
2023-05-03T03:51:38.056Z,86
2023-05-03T03:52:44.864Z,86
2023-05-03T03:53:51.680Z,86
2023-05-03T03:54:58.420Z,86
2023-05-03T03:56:05.168Z,86
2023-05-03T03:57:12.074Z,86
2023-05-03T03:58:18.816Z,86
2023-05-03T03:59:25.577Z,86
2023-05-03T04:00:32.328Z,86
2023-05-03T04:01:41.938Z,86
2023-05-03T04:02:48.805Z,86
2023-05-03T04:03:55.623Z,86
2023-05-03T04:05:02.388Z,86
2023-05-03T04:06:09.323Z,86
2023-05-03T04:07:16.077Z,86
2023-05-03T04:08:22.845Z,86
2023-05-03T04:09:29.658Z,86
2023-05-03T04:10:36.430Z,86
2023-05-03T04:11:43.205Z,86
2023-05-03T04:12:49.946Z,86
2023-05-03T04:13:56.759Z,85
2023-05-03T04:15:03.526Z,86
2023-05-03T04:16:10.772Z,86
2023-05-03T04:17:17.551Z,86
2023-05-03T04:18:24.329Z,86
2023-05-03T04:19:31.114Z,86
2023-05-03T04:20:37.869Z,86
2023-05-03T04:21:44.653Z,86
2023-05-03T04:22:51.456Z,86
2023-05-03T04:23:58.253Z,86
2023-05-03T04:25:05.025Z,86
2023-05-03T04:26:20.173Z,86
2023-05-03T04:27:18.595Z,86
2023-05-03T04:28:25.317Z,86
2023-05-03T04:29:32.116Z,86
2023-05-03T04:30:38.892Z,86
2023-05-03T04:31:45.646Z,86
2023-05-03T04:32:52.434Z,86
2023-05-03T04:33:59.192Z,86
2023-05-03T04:35:05.944Z,86
2023-05-03T04:36:12.768Z,86
2023-05-03T04:37:19.483Z,86
2023-05-03T04:38:26.329Z,86
2023-05-03T04:39:33.095Z,86
2023-05-03T04:40:39.908Z,86
2023-05-03T04:41:46.686Z,86
2023-05-03T04:42:53.480Z,86
2023-05-03T04:44:00.292Z,86
2023-05-03T04:45:07.150Z,87
2023-05-03T04:46:14.230Z,86
2023-05-03T04:47:20.854Z,87
2023-05-03T04:48:27.631Z,87
2023-05-03T04:49:34.520Z,87
2023-05-03T04:50:41.260Z,87
2023-05-03T04:51:48.092Z,87
2023-05-03T04:52:54.861Z,87
2023-05-03T04:54:01.636Z,87
2023-05-03T04:55:08.465Z,86
2023-05-03T04:56:15.196Z,86
2023-05-03T04:57:21.915Z,87
2023-05-03T04:58:28.823Z,87
2023-05-03T04:59:35.617Z,87
2023-05-03T05:00:42.355Z,87
2023-05-03T05:01:49.208Z,87
2023-05-03T05:02:56.018Z,87
2023-05-03T05:04:02.708Z,86
2023-05-03T05:05:09.479Z,86
2023-05-03T05:06:16.307Z,87
2023-05-03T05:07:23.105Z,87
2023-05-03T05:08:29.970Z,87
2023-05-03T05:09:36.812Z,87
2023-05-03T05:10:43.653Z,86
2023-05-03T05:11:50.493Z,86
2023-05-03T05:12:57.237Z,86
2023-05-03T05:14:04.067Z,86
2023-05-03T05:15:10.832Z,86
2023-05-03T05:16:17.717Z,86
2023-05-03T05:17:24.458Z,86
2023-05-03T05:18:31.265Z,86
2023-05-03T05:19:38.008Z,86
2023-05-03T05:20:44.793Z,86
2023-05-03T05:21:51.544Z,86
2023-05-03T05:22:58.375Z,86
2023-05-03T05:24:05.091Z,86
2023-05-03T05:25:11.934Z,86
2023-05-03T05:26:18.734Z,86
2023-05-03T05:27:25.493Z,86
2023-05-03T05:28:32.236Z,86
2023-05-03T05:29:39.011Z,86
2023-05-03T05:30:45.800Z,85
2023-05-03T05:31:52.681Z,85
2023-05-03T05:32:59.416Z,86
2023-05-03T05:34:06.334Z,86
2023-05-03T05:35:13.535Z,86
2023-05-03T05:36:20.444Z,85
2023-05-03T05:37:27.225Z,86
2023-05-03T05:38:37.683Z,86
2023-05-03T05:39:44.688Z,86
2023-05-03T05:40:51.445Z,86
2023-05-03T05:41:58.271Z,86
2023-05-03T05:43:05.300Z,85
2023-05-03T05:44:12.121Z,85
2023-05-03T05:45:18.992Z,85
2023-05-03T05:46:25.889Z,85
2023-05-03T05:47:32.698Z,85
2023-05-03T05:48:39.507Z,85
2023-05-03T05:49:46.890Z,85
2023-05-03T05:50:53.937Z,85
2023-05-03T05:52:00.762Z,85
2023-05-03T05:53:07.657Z,85
2023-05-03T05:54:14.532Z,85
2023-05-03T05:55:21.444Z,85
2023-05-03T05:56:28.208Z,85
2023-05-03T05:57:40.753Z,85
2023-05-03T05:58:45.696Z,85
2023-05-03T05:59:52.749Z,85
2023-05-03T06:00:59.218Z,85
2023-05-03T06:02:06.032Z,85
2023-05-03T06:03:12.817Z,85
2023-05-03T06:04:19.602Z,85
2023-05-03T06:05:26.507Z,85
2023-05-03T06:06:33.383Z,85
2023-05-03T06:07:40.089Z,85
2023-05-03T06:08:46.841Z,85
2023-05-03T06:09:53.589Z,84
2023-05-03T06:11:00.370Z,85
2023-05-03T06:12:07.199Z,85
2023-05-03T06:13:13.939Z,85
2023-05-03T06:14:20.843Z,84
2023-05-03T06:15:27.445Z,84
2023-05-03T06:16:34.285Z,85
2023-05-03T06:17:41.134Z,85
2023-05-03T06:18:47.815Z,86
2023-05-03T06:19:54.560Z,85
2023-05-03T06:21:01.395Z,85
2023-05-03T06:22:08.192Z,85
2023-05-03T06:23:15.004Z,85
2023-05-03T06:24:21.908Z,85
2023-05-03T06:25:28.644Z,85
2023-05-03T06:26:35.494Z,85
2023-05-03T06:27:42.342Z,85
2023-05-03T06:28:49.112Z,85
2023-05-03T06:29:55.894Z,85
2023-05-03T06:31:02.691Z,85
2023-05-03T06:32:09.493Z,85
2023-05-03T06:33:16.270Z,85
2023-05-03T06:34:23.165Z,85
2023-05-03T06:35:29.894Z,85
2023-05-03T06:36:37.407Z,85
2023-05-03T06:37:44.378Z,85
2023-05-03T06:38:51.148Z,85
2023-05-03T06:39:58.023Z,85
2023-05-03T06:41:04.901Z,85
2023-05-03T06:42:11.673Z,85
2023-05-03T06:43:18.449Z,85
2023-05-03T06:44:25.271Z,85
2023-05-03T06:45:32.277Z,85
2023-05-03T06:46:39.099Z,85
2023-05-03T06:47:46.062Z,85
2023-05-03T06:48:52.907Z,85
2023-05-03T06:49:59.555Z,85
2023-05-03T06:51:06.334Z,85
2023-05-03T06:52:13.136Z,85
2023-05-03T06:53:19.899Z,85
2023-05-03T06:54:26.632Z,85
2023-05-03T06:55:33.425Z,85
2023-05-03T06:56:40.175Z,85
2023-05-03T06:57:46.949Z,85
2023-05-03T06:58:53.696Z,85
2023-05-03T07:00:00.758Z,85
2023-05-03T07:01:07.595Z,85
2023-05-03T07:02:14.264Z,85
2023-05-03T07:03:21.277Z,85
2023-05-03T07:04:27.859Z,85
2023-05-03T07:05:34.702Z,86
2023-05-03T07:06:55.097Z,85
2023-05-03T07:07:48.220Z,85
2023-05-03T07:08:54.971Z,85
2023-05-03T07:10:01.946Z,85
2023-05-03T07:11:08.801Z,85
2023-05-03T07:12:15.540Z,85
2023-05-03T07:13:22.358Z,85
2023-05-03T07:14:29.165Z,85
2023-05-03T07:15:35.874Z,85
2023-05-03T07:16:42.795Z,85
2023-05-03T07:17:49.594Z,85
2023-05-03T07:18:56.304Z,85
2023-05-03T07:20:03.244Z,85
2023-05-03T07:21:10.348Z,85
2023-05-03T07:22:17.125Z,85
2023-05-03T07:23:29.057Z,85
2023-05-03T07:24:35.962Z,85
2023-05-03T07:25:42.792Z,85
2023-05-03T07:26:49.506Z,85
2023-05-03T07:27:56.298Z,85
2023-05-03T07:29:06.804Z,85
2023-05-03T07:30:39.571Z,85
2023-05-03T07:31:46.581Z,84
2023-05-03T07:32:53.424Z,84
2023-05-03T07:34:03.350Z,84
2023-05-03T07:35:10.197Z,85
2023-05-03T07:36:17.140Z,84
2023-05-03T07:37:24.098Z,85
2023-05-03T07:38:31.003Z,85
2023-05-03T07:39:37.848Z,85
2023-05-03T07:40:49.926Z,85
2023-05-03T07:41:58.110Z,85
2023-05-03T07:43:05.056Z,85
2023-05-03T07:44:11.894Z,84
2023-05-03T07:45:18.869Z,85
2023-05-03T07:46:25.862Z,84
2023-05-03T07:47:32.736Z,83
2023-05-03T07:48:39.629Z,82
2023-05-03T07:49:46.462Z,82
2023-05-03T07:50:53.398Z,82
2023-05-03T07:52:00.274Z,82
2023-05-03T07:53:09.994Z,82
2023-05-03T07:54:16.924Z,82
2023-05-03T07:55:23.812Z,83
2023-05-03T07:56:30.750Z,82
2023-05-03T07:57:37.885Z,82
2023-05-03T07:58:46.672Z,82
2023-05-03T07:59:51.653Z,82
2023-05-03T08:00:58.633Z,82
2023-05-03T08:02:06.362Z,81
2023-05-03T08:03:13.453Z,81
2023-05-03T08:04:20.356Z,82
2023-05-03T08:05:27.195Z,81
2023-05-03T08:06:34.873Z,81
2023-05-03T08:07:42.447Z,81
2023-05-03T08:08:49.410Z,81
2023-05-03T08:09:56.460Z,81
2023-05-03T08:11:03.316Z,82
2023-05-03T08:12:10.208Z,81
2023-05-03T08:13:17.122Z,81
2023-05-03T08:14:23.992Z,81
2023-05-03T08:15:30.890Z,81
2023-05-03T08:16:38.683Z,81
2023-05-03T08:17:45.563Z,80
2023-05-03T08:18:52.484Z,81
2023-05-03T08:19:59.341Z,81
2023-05-03T08:21:06.245Z,80
2023-05-03T08:22:13.293Z,80
2023-05-03T08:23:20.185Z,80
2023-05-03T08:24:27.122Z,80
2023-05-03T08:25:33.899Z,81
2023-05-03T08:26:40.752Z,80
2023-05-03T08:27:47.605Z,80
2023-05-03T08:28:54.510Z,80
2023-05-03T08:30:01.531Z,80
2023-05-03T08:31:08.864Z,80
2023-05-03T08:32:16.165Z,79
2023-05-03T08:33:23.176Z,79
2023-05-03T08:34:30.084Z,79
2023-05-03T08:35:36.901Z,79
2023-05-03T08:36:43.746Z,79
2023-05-03T08:37:50.549Z,78
2023-05-03T08:38:57.472Z,78
2023-05-03T08:40:04.482Z,78
2023-05-03T08:41:15.336Z,78
2023-05-03T08:42:25.919Z,78
2023-05-03T08:43:32.509Z,77
2023-05-03T08:44:39.428Z,77
2023-05-03T08:45:49.057Z,77
2023-05-03T08:46:55.965Z,77
2023-05-03T08:48:02.757Z,77
2023-05-03T08:49:09.611Z,75
2023-05-03T08:50:16.504Z,75
2023-05-03T08:51:23.256Z,74
2023-05-03T08:52:30.090Z,75
2023-05-03T08:53:36.959Z,74
2023-05-03T08:54:45.377Z,74
2023-05-03T08:55:50.699Z,74
2023-05-03T08:56:57.515Z,73
2023-05-03T08:58:04.319Z,74
2023-05-03T08:59:11.242Z,74
2023-05-03T09:00:18.032Z,74
2023-05-03T09:01:25.102Z,75
2023-05-03T09:02:33.112Z,74
2023-05-03T09:03:40.037Z,74
2023-05-03T09:04:46.892Z,74
2023-05-03T09:05:54.616Z,74
2023-05-03T09:07:01.359Z,74
2023-05-03T09:08:13.865Z,74
2023-05-03T09:09:20.790Z,74
2023-05-03T09:10:27.694Z,73
2023-05-03T09:11:34.540Z,73
2023-05-03T09:12:41.585Z,73
2023-05-03T09:13:48.434Z,73
2023-05-03T09:14:55.318Z,72
2023-05-03T09:16:03.153Z,72
2023-05-03T09:17:10.241Z,72
2023-05-03T09:18:20.483Z,73
2023-05-03T09:19:27.201Z,73
2023-05-03T09:20:34.121Z,73
2023-05-03T09:21:40.968Z,71
2023-05-03T09:22:49.010Z,71
2023-05-03T09:23:55.856Z,70
2023-05-03T09:25:04.000Z,71
2023-05-03T09:26:11.157Z,70
2023-05-03T09:27:17.983Z,70
2023-05-03T09:28:24.906Z,70
2023-05-03T09:29:31.841Z,70
2023-05-03T09:30:39.612Z,70
2023-05-03T09:31:46.506Z,70
2023-05-03T09:32:53.452Z,69
2023-05-03T09:34:00.315Z,70
2023-05-03T09:35:07.190Z,69
2023-05-03T09:36:14.224Z,69
2023-05-03T09:37:21.254Z,69
2023-05-03T09:38:28.021Z,69
2023-05-03T09:39:34.822Z,68
2023-05-03T09:40:41.731Z,69
2023-05-03T09:41:51.334Z,68
2023-05-03T09:42:58.121Z,68
2023-05-03T09:44:13.179Z,68
2023-05-03T09:45:20.041Z,68
2023-05-03T09:46:27.058Z,68
2023-05-03T09:47:33.933Z,68
2023-05-03T09:48:40.806Z,68
2023-05-03T09:49:47.662Z,68
2023-05-03T09:50:54.541Z,68
2023-05-03T09:52:01.447Z,68
2023-05-03T09:53:08.315Z,68
2023-05-03T09:54:15.086Z,68
2023-05-03T09:55:21.987Z,67
2023-05-03T09:56:28.989Z,68
2023-05-03T09:57:36.951Z,68
2023-05-03T09:58:44.030Z,68
2023-05-03T09:59:50.851Z,68
2023-05-03T10:00:58.621Z,68
2023-05-03T10:02:05.500Z,67
2023-05-03T10:03:12.492Z,67
2023-05-03T10:04:19.370Z,67
2023-05-03T10:05:26.202Z,66
2023-05-03T10:06:33.174Z,66
2023-05-03T10:07:43.810Z,66
2023-05-03T10:08:50.704Z,66
2023-05-03T10:10:08.703Z,65
2023-05-03T10:11:15.584Z,66
2023-05-03T10:12:22.534Z,65
2023-05-03T10:13:29.548Z,66
2023-05-03T10:14:36.505Z,66
2023-05-03T10:15:43.481Z,66
2023-05-03T10:16:53.499Z,66
2023-05-03T10:18:05.004Z,66
2023-05-03T10:19:14.247Z,66
2023-05-03T10:20:24.698Z,66
2023-05-03T10:21:35.241Z,66
2023-05-03T10:22:49.950Z,65
2023-05-03T10:24:08.220Z,65
2023-05-03T10:25:17.663Z,65
2023-05-03T10:26:30.825Z,65
2023-05-03T10:27:41.271Z,65
2023-05-03T10:28:51.054Z,65
2023-05-03T10:29:59.212Z,65
2023-05-03T10:31:06.186Z,65
2023-05-03T10:32:23.340Z,64
2023-05-03T10:33:38.275Z,65
2023-05-03T10:34:46.370Z,64
2023-05-03T10:35:52.068Z,64
2023-05-03T10:36:58.931Z,64
2023-05-03T10:38:07.073Z,64
2023-05-03T10:39:19.948Z,65
2023-05-03T10:40:26.754Z,64
2023-05-03T10:41:43.953Z,64
2023-05-03T10:42:58.782Z,64
2023-05-03T10:44:05.700Z,64
2023-05-03T10:45:22.960Z,64
2023-05-03T10:46:29.761Z,64
2023-05-03T10:47:36.653Z,64
2023-05-03T10:48:43.465Z,64
2023-05-03T10:49:50.342Z,65
2023-05-03T10:51:02.323Z,64
2023-05-03T10:52:19.572Z,64
2023-05-03T10:53:36.782Z,64
2023-05-03T10:54:44.612Z,64
2023-05-03T10:55:53.311Z,64
2023-05-03T10:57:05.207Z,64
2023-05-03T10:58:13.004Z,64
2023-05-03T10:59:19.815Z,64
2023-05-03T11:00:26.698Z,64
2023-05-03T11:01:36.434Z,64
2023-05-03T11:02:43.423Z,64
2023-05-03T11:03:59.924Z,64
2023-05-03T11:05:17.063Z,64
2023-05-03T11:06:23.963Z,64
2023-05-03T11:07:38.970Z,64
2023-05-03T11:08:46.716Z,64
2023-05-03T11:09:53.763Z,64
2023-05-03T11:11:01.300Z,64
2023-05-03T11:12:11.077Z,64
2023-05-03T11:13:18.069Z,64
2023-05-03T11:14:24.941Z,64
2023-05-03T11:15:31.919Z,64
2023-05-03T11:16:38.876Z,64
2023-05-03T11:17:45.765Z,64
2023-05-03T11:18:53.441Z,63
2023-05-03T11:20:00.329Z,63
2023-05-03T11:21:08.389Z,63
2023-05-03T11:22:15.338Z,64
2023-05-03T11:23:22.171Z,63
2023-05-03T11:24:31.681Z,63
2023-05-03T11:25:39.807Z,63
2023-05-03T11:26:46.895Z,63
2023-05-03T11:27:54.510Z,63
2023-05-03T11:29:01.420Z,63
2023-05-03T11:30:08.313Z,63
2023-05-03T11:31:15.381Z,63
2023-05-03T11:32:22.351Z,62
2023-05-03T11:33:29.063Z,63
2023-05-03T11:34:36.018Z,63
2023-05-03T11:35:42.881Z,62
2023-05-03T11:36:49.782Z,62
2023-05-03T11:37:56.571Z,62
2023-05-03T11:39:03.360Z,62
2023-05-03T11:40:10.256Z,61
2023-05-03T11:41:17.163Z,61
2023-05-03T11:42:23.905Z,61
2023-05-03T11:43:30.662Z,61
2023-05-03T11:44:37.562Z,61
2023-05-03T11:45:44.914Z,61
2023-05-03T11:46:51.421Z,61
2023-05-03T11:47:58.223Z,61
2023-05-03T11:49:05.044Z,61
2023-05-03T11:50:11.891Z,60
2023-05-03T11:51:18.881Z,60
2023-05-03T11:52:25.638Z,60
2023-05-03T11:53:32.455Z,60
2023-05-03T11:54:39.443Z,60
2023-05-03T11:55:46.326Z,60
2023-05-03T11:56:53.234Z,60
2023-05-03T11:58:00.037Z,60
2023-05-03T11:59:06.839Z,61
2023-05-03T12:00:13.645Z,61
2023-05-03T12:01:20.682Z,61
2023-05-03T12:02:27.742Z,61
2023-05-03T12:03:34.748Z,61
2023-05-03T12:04:42.272Z,61
2023-05-03T12:05:48.795Z,61
2023-05-03T12:06:56.141Z,61
2023-05-03T12:08:02.562Z,61
2023-05-03T12:09:09.883Z,61
2023-05-03T12:10:21.301Z,61
2023-05-03T12:11:26.753Z,61
2023-05-03T12:12:35.239Z,61
2023-05-03T12:13:40.642Z,61
2023-05-03T12:14:46.714Z,62
2023-05-03T12:16:10.656Z,62
2023-05-03T12:17:07.441Z,61
2023-05-03T12:18:12.768Z,62
2023-05-03T12:19:22.966Z,62
2023-05-03T12:21:37.224Z,61
2023-05-03T12:22:50.545Z,62
2023-05-03T12:23:57.126Z,61
2023-05-03T12:25:04.262Z,61
2023-05-03T12:26:10.169Z,61
2023-05-03T12:27:18.938Z,62
2023-05-03T12:28:23.712Z,61
2023-05-03T12:29:31.486Z,61
2023-05-03T12:30:39.983Z,61
2023-05-03T12:31:44.605Z,61
2023-05-03T12:32:51.432Z,60
2023-05-03T12:35:07.866Z,60
2023-05-03T12:36:14.892Z,60
2023-05-03T12:37:22.475Z,60
2023-05-03T12:38:30.823Z,59
2023-05-03T12:39:39.484Z,59
2023-05-03T12:40:42.223Z,59
2023-05-03T12:42:55.858Z,59
2023-05-03T12:44:02.770Z,59
2023-05-03T12:46:31.999Z,59
2023-05-03T12:47:28.695Z,58
2023-05-03T12:48:32.652Z,58
2023-05-03T12:49:38.910Z,58
2023-05-03T12:50:45.360Z,58
2023-05-03T12:52:02.777Z,58
2023-05-03T12:54:04.755Z,57
2023-05-03T12:55:11.907Z,57
2023-05-03T12:56:20.279Z,58
2023-05-03T12:57:27.791Z,58
2023-05-03T12:58:55.777Z,58
2023-05-03T12:59:41.561Z,58
2023-05-03T13:01:05.222Z,58
2023-05-03T13:04:36.815Z,58
2023-05-03T13:05:26.142Z,58
2023-05-03T13:06:20.849Z,58
2023-05-03T13:07:29.411Z,58
2023-05-03T13:08:35.423Z,57
2023-05-03T13:10:51.535Z,56
2023-05-03T13:11:58.458Z,56
2023-05-03T13:13:05.288Z,56
2023-05-03T13:14:12.215Z,55
2023-05-03T13:15:19.033Z,56
2023-05-03T13:16:25.968Z,57
2023-05-03T13:17:33.077Z,57
2023-05-03T13:18:39.688Z,57
2023-05-03T13:19:46.725Z,56
2023-05-03T13:20:53.501Z,56
2023-05-03T13:22:00.439Z,56
2023-05-03T13:23:07.279Z,56
2023-05-03T13:24:14.143Z,56
2023-05-03T13:25:21.001Z,56
2023-05-03T13:26:32.901Z,56
2023-05-03T13:27:39.807Z,55
2023-05-03T13:28:46.726Z,55
2023-05-03T13:29:58.120Z,55
2023-05-03T13:31:05.019Z,56
2023-05-03T13:32:12.054Z,55
2023-05-03T13:33:19.039Z,56
2023-05-03T13:34:26.059Z,55
2023-05-03T13:35:32.882Z,55
2023-05-03T13:36:39.807Z,55
2023-05-03T13:37:46.657Z,55
2023-05-03T13:38:56.303Z,55
2023-05-03T13:40:03.439Z,55
2023-05-03T13:41:10.606Z,55
2023-05-03T13:42:18.530Z,55
2023-05-03T13:43:25.392Z,55
2023-05-03T13:44:37.624Z,55
2023-05-03T13:45:44.699Z,55
2023-05-03T13:46:53.024Z,55
2023-05-03T13:48:10.921Z,55
2023-05-03T13:49:12.203Z,55
2023-05-03T13:50:19.200Z,55
2023-05-03T13:51:30.461Z,55
2023-05-03T13:52:37.439Z,54
2023-05-03T13:53:44.360Z,55
2023-05-03T13:54:54.947Z,55
2023-05-03T13:56:05.554Z,55
2023-05-03T13:57:12.549Z,55
2023-05-03T13:58:19.652Z,55
2023-05-03T13:59:26.663Z,55
2023-05-03T14:00:35.006Z,55
2023-05-03T14:01:42.020Z,54
2023-05-03T14:02:49.082Z,55
2023-05-03T14:03:56.080Z,54
2023-05-03T14:05:03.051Z,54
2023-05-03T14:06:11.007Z,54
2023-05-03T14:07:17.945Z,55
2023-05-03T14:08:24.886Z,54
2023-05-03T14:09:31.773Z,54
2023-05-03T14:10:38.687Z,54
2023-05-03T14:11:45.672Z,53
2023-05-03T14:12:52.753Z,53
2023-05-03T14:14:03.394Z,54
2023-05-03T14:15:09.990Z,54
2023-05-03T14:16:19.568Z,53
2023-05-03T14:17:24.679Z,53
2023-05-03T14:18:31.550Z,53
2023-05-03T14:19:38.370Z,53
2023-05-03T14:20:45.257Z,53
2023-05-03T14:21:52.129Z,53
2023-05-03T14:23:01.768Z,53
2023-05-03T14:24:08.696Z,52
2023-05-03T14:25:15.612Z,52
2023-05-03T14:26:22.525Z,52
2023-05-03T14:27:29.649Z,52
2023-05-03T14:28:36.569Z,53
2023-05-03T14:29:43.544Z,53
2023-05-03T14:30:53.728Z,53
2023-05-03T14:32:00.619Z,52
2023-05-03T14:33:07.932Z,52
2023-05-03T14:34:19.121Z,52
2023-05-03T14:35:26.073Z,52
2023-05-03T14:36:33.051Z,52
2023-05-03T14:37:43.021Z,53
2023-05-03T14:38:50.248Z,52
2023-05-03T14:40:02.263Z,52
2023-05-03T14:41:09.383Z,52
2023-05-03T14:42:17.114Z,53
2023-05-03T14:43:24.084Z,53
2023-05-03T14:44:31.044Z,53
2023-05-03T14:45:37.964Z,53
2023-05-03T14:46:46.104Z,53
2023-05-03T14:47:52.942Z,53
2023-05-03T14:49:03.899Z,53
2023-05-03T14:50:11.968Z,53
2023-05-03T14:51:19.185Z,52
2023-05-03T14:52:27.353Z,52
2023-05-03T14:53:38.637Z,51
2023-05-03T14:54:46.750Z,51
2023-05-03T14:55:56.541Z,51
2023-05-03T14:57:03.586Z,52
2023-05-03T14:58:10.574Z,51
2023-05-03T14:59:21.164Z,52
2023-05-03T15:00:28.423Z,51
2023-05-03T15:01:35.393Z,51
2023-05-03T15:02:42.640Z,50
2023-05-03T15:03:53.785Z,51
2023-05-03T15:05:00.891Z,51
2023-05-03T15:06:08.142Z,51
2023-05-03T15:07:15.280Z,51
2023-05-03T15:08:22.268Z,52
2023-05-03T15:09:29.186Z,51
2023-05-03T15:10:36.576Z,51
2023-05-03T15:11:43.254Z,51
2023-05-03T15:12:50.264Z,51
2023-05-03T15:13:57.163Z,51
2023-05-03T15:15:04.044Z,50
2023-05-03T15:16:12.363Z,51
2023-05-03T15:17:19.422Z,51
2023-05-03T15:18:26.292Z,51
2023-05-03T15:19:33.237Z,51
2023-05-03T15:20:41.012Z,51
2023-05-03T15:21:48.181Z,50
2023-05-03T15:22:55.006Z,51
2023-05-03T15:24:01.921Z,51
2023-05-03T15:25:08.841Z,51
2023-05-03T15:26:16.710Z,51
2023-05-03T15:27:25.180Z,51
2023-05-03T15:28:32.392Z,51
2023-05-03T15:29:43.759Z,51
2023-05-03T15:30:50.813Z,51
2023-05-03T15:31:57.527Z,51
2023-05-03T15:33:04.421Z,52
2023-05-03T15:34:11.284Z,51
2023-05-03T15:35:18.105Z,51
2023-05-03T15:36:25.286Z,51
2023-05-03T15:37:32.122Z,51
2023-05-03T15:38:42.673Z,51
2023-05-03T15:39:50.904Z,51
2023-05-03T15:40:57.862Z,51
2023-05-03T15:42:04.762Z,51
2023-05-03T15:43:11.668Z,51
2023-05-03T15:44:19.383Z,51
2023-05-03T15:45:26.324Z,50
2023-05-03T15:46:33.178Z,51
2023-05-03T15:47:40.036Z,51
2023-05-03T15:48:47.016Z,51
2023-05-03T15:49:53.855Z,51
2023-05-03T15:51:01.093Z,51
2023-05-03T15:52:09.134Z,51
2023-05-03T15:53:15.981Z,51
2023-05-03T15:54:22.914Z,52
2023-05-03T15:55:30.002Z,51
2023-05-03T15:56:38.237Z,51
2023-05-03T15:57:45.801Z,51
2023-05-03T15:58:53.531Z,52
2023-05-03T16:00:00.452Z,51
2023-05-03T16:01:09.419Z,51
2023-05-03T16:02:16.246Z,51
2023-05-03T16:03:23.189Z,51
2023-05-03T16:04:30.130Z,51
2023-05-03T16:05:36.930Z,51
2023-05-03T16:06:45.285Z,51
2023-05-03T16:07:52.291Z,51
2023-05-03T16:08:59.256Z,51
2023-05-03T16:10:06.556Z,51
2023-05-03T16:11:13.180Z,51
2023-05-03T16:12:32.155Z,51